Weather at Burlington International Airport

Public forecast

Using degrees Fahrenheit for public forecast. Weather courtesy of forecast.io.

Current aviation weather report (METAR) for Burlington International Airport

2024/06/15 04:54 (retrieved 21 minutes ago)

KBTV 150454Z 35013G26KT 10SM SCT085 18/10 A2995 RMK AO2 PK WND 33026/0358 SLP141 T01780100 402830178

Closest aviation forecast (TAF) to Burlington International Airport

Forecast is more than 6 hours old.

Closest forecast is Ottawa / Gatineau Airport, 120.2 nm (222.6 km) WNW.

2024/06/14 18:00 (retrieved 11 hours ago)

TAF CYND 141740Z 1418/1501 29010KT P6SM BKN040 BKN080 TEMPO 1418/1423 P6SM -SHRA BECMG 1421/1423 34006KT FM142300 34006KT P6SM SCT040 TEMPO 1423/1501 BKN040 RMK NXT FCST BY 151300Z